Time;durP1;ratioP1;P1;durP2;ratioP2;P2;SDS_P1;SDS_P2;PMS_P1;PMS_P2;Temp;Humidity;BMP_temperature;BMP_pressure;BME280_temperature;BME280_humidity;BME280_pressure;Samples;Min_cycle;Max_cycle;Signal;HPM_P1;HPM_P2
2022/02/11 00:07:29;;;;;;;;;13.00;10.75;;;;;19.45;38.63;101876.94;5061382;28;45320;-79
2022/02/11 00:09:55;;;;;;;;;11.00;9.50;;;;;19.44;38.90;101873.41;5059822;28;46040;-79
2022/02/11 00:12:21;;;;;;;;;11.25;11.25;;;;;19.43;38.69;101873.44;5059736;28;45521;-80
2022/02/11 00:17:17;;;;;;;;;11.75;9.75;;;;;19.39;39.01;101866.41;5059714;28;45216;-80
2022/02/11 00:19:43;;;;;;;;;9.25;8.50;;;;;19.39;39.11;101875.25;5058780;28;56719;-79
2022/02/11 00:22:08;;;;;;;;;13.25;11.75;;;;;19.40;39.04;101881.41;5042788;28;45241;-80
2022/02/11 00:24:33;;;;;;;;;12.75;10.75;;;;;19.39;38.92;101879.66;5042402;28;50430;-80
2022/02/11 00:32:40;;;;;;;;;13.25;12.25;;;;;19.33;38.68;101882.34;5045481;28;45307;-79
2022/02/11 00:35:19;;;;;;;;;11.50;10.25;;;;;19.32;38.79;101878.81;5060503;28;45348;-80
2022/02/11 00:37:45;;;;;;;;;10.25;9.25;;;;;19.32;38.68;101877.94;5059543;28;46142;-79
2022/02/11 01:04:03;;;;;;;;;12.75;10.75;;;;;19.23;38.52;101886.84;5059181;28;45435;-80
2022/02/11 01:06:29;;;;;;;;;9.75;9.75;;;;;19.25;38.73;101889.47;5059137;28;45460;-79
2022/02/11 01:08:54;;;;;;;;;7.00;7.00;;;;;19.25;38.76;101884.19;5060153;28;45433;-80
2022/02/11 01:11:27;;;;;;;;;8.25;8.25;;;;;19.24;39.15;101890.38;5042159;28;45257;-80
2022/02/11 01:13:53;;;;;;;;;10.75;9.75;;;;;19.25;38.82;101892.13;5074765;28;45476;-80
2022/02/11 01:16:24;;;;;;;;;13.50;13.50;;;;;19.25;38.75;101895.63;5042121;28;45289;-80
2022/02/11 01:18:58;;;;;;;;;9.25;9.00;;;;;19.23;38.57;101897.44;5043226;28;45450;-80
2022/02/11 01:21:33;;;;;;;;;10.00;7.50;;;;;19.20;38.33;101898.34;5058763;28;48359;-80
2022/02/11 01:24:16;;;;;;;;;10.00;7.75;;;;;19.18;38.54;101902.75;5060163;28;45369;-80
2022/02/11 01:27:03;;;;;;;;;7.50;7.50;;;;;19.15;38.70;101908.06;5060164;28;45198;-80
2022/02/11 01:29:57;;;;;;;;;8.25;8.00;;;;;19.14;38.41;101911.63;5058896;28;45393;-79
2022/02/11 01:35:10;;;;;;;;;9.50;7.00;;;;;19.14;38.34;101916.91;5041631;28;45286;-79
2022/02/11 01:51:01;;;;;;;;;10.25;8.25;;;;;19.15;38.55;101936.31;5058089;28;45263;-80
2022/02/11 01:53:36;;;;;;;;;10.25;10.25;;;;;19.15;38.75;101929.25;5044303;28;45890;-81
2022/02/11 01:59:09;;;;;;;;;8.75;7.50;;;;;19.13;38.35;101924.88;5058581;28;45328;-80
2022/02/11 02:22:54;;;;;;;;;7.50;7.25;;;;;19.01;38.81;101962.84;5058512;28;45316;-79
2022/02/11 02:57:49;;;;;;;;;6.00;5.75;;;;;18.98;38.17;101962.88;5061506;28;45705;-80
2022/02/11 03:50:00;;;;;;;;;7.75;7.25;;;;;18.87;38.20;101997.34;5060141;28;45433;-78
2022/02/11 04:59:57;;;;;;;;;9.50;9.25;;;;;18.76;38.12;102110.22;5059356;28;45322;-78
2022/02/11 05:02:25;;;;;;;;;7.00;5.25;;;;;18.78;38.37;102108.47;5042096;28;47674;-78
2022/02/11 05:04:54;;;;;;;;;8.00;6.75;;;;;18.80;38.53;102119.03;5058879;28;45448;-78
2022/02/11 05:07:20;;;;;;;;;7.75;7.75;;;;;18.78;37.97;102115.53;5058857;28;46838;-78
2022/02/11 05:09:45;;;;;;;;;8.75;8.25;;;;;18.80;38.61;102116.38;5059222;28;45319;-78
2022/02/11 05:12:11;;;;;;;;;6.25;5.50;;;;;18.80;37.96;102121.69;5058062;28;63709;-77
2022/02/11 05:14:36;;;;;;;;;5.50;5.50;;;;;18.80;38.32;102119.03;5041386;28;45492;-77
2022/02/11 05:17:01;;;;;;;;;8.50;7.75;;;;;18.80;38.07;102122.56;5041271;28;63469;-78
2022/02/11 05:19:27;;;;;;;;;8.00;6.50;;;;;18.79;38.34;102125.22;5058622;28;45244;-78
2022/02/11 05:21:52;;;;;;;;;7.25;6.25;;;;;18.79;38.59;102134.03;5041286;28;60107;-78
2022/02/11 05:24:17;;;;;;;;;6.75;5.50;;;;;18.80;38.34;102126.97;5041779;28;48364;-77
2022/02/11 05:26:43;;;;;;;;;10.50;9.00;;;;;18.81;38.09;102123.44;5057859;28;64383;-78
2022/02/11 05:29:08;;;;;;;;;7.50;6.50;;;;;18.81;38.46;102123.44;5058602;28;45295;-78
2022/02/11 05:31:34;;;;;;;;;6.50;6.50;;;;;18.81;38.14;102129.59;5041200;28;57986;-77
2022/02/11 05:33:59;;;;;;;;;7.75;5.00;;;;;18.82;38.32;102146.34;5057613;28;65662;-77
2022/02/11 05:36:24;;;;;;;;;7.25;7.25;;;;;18.83;37.64;102150.75;5041469;28;50217;-77
2022/02/11 05:38:50;;;;;;;;;11.00;7.00;;;;;18.85;39.05;102154.28;5041527;28;52846;-85
2022/02/11 05:41:16;;;;;;;;;9.25;7.00;;;;;18.92;39.35;102154.25;5041916;28;45579;-85
2022/02/11 05:43:41;;;;;;;;;8.75;5.50;;;;;19.06;39.74;102156.00;5060190;28;45306;-85
2022/02/11 05:46:10;;;;;;;;;9.75;8.00;;;;;19.18;39.76;102159.47;5058015;28;55786;-86
2022/02/11 05:48:38;;;;;;;;;9.00;7.25;;;;;19.30;39.72;102157.69;5042046;28;45294;-85
2022/02/11 05:51:04;;;;;;;;;9.25;7.00;;;;;19.42;39.96;102168.22;5058477;28;45356;-85
2022/02/11 05:53:29;;;;;;;;;10.25;7.50;;;;;19.50;39.91;102163.75;5042084;28;45212;-86
2022/02/11 05:55:55;;;;;;;;;9.25;7.25;;;;;19.59;40.02;102171.69;5045099;28;45937;-81
2022/02/11 05:58:20;;;;;;;;;10.75;7.50;;;;;19.69;41.15;102175.16;5058121;28;50408;-75
2022/02/11 06:00:45;;;;;;;;;7.00;7.00;;;;;19.79;41.55;102175.97;5058059;28;62574;-81
2022/02/11 06:03:11;;;;;;;;;9.25;8.75;;;;;19.89;41.80;102180.34;5059159;28;45407;-76
2022/02/11 06:05:36;;;;;;;;;9.25;7.50;;;;;19.98;41.38;102182.91;5025047;28;59469;-77
2022/02/11 06:08:02;;;;;;;;;6.75;5.75;;;;;20.05;41.95;102190.81;5041494;28;45458;-78
2022/02/11 06:10:27;;;;;;;;;10.25;7.00;;;;;20.15;41.90;102198.72;5022497;28;45464;-76
2022/02/11 06:12:53;;;;;;;;;5.75;5.75;;;;;20.22;42.41;102196.00;5049232;28;45317;-78
2022/02/11 06:15:18;;;;;;;;;7.50;6.50;;;;;20.29;42.38;102186.25;5058083;28;47019;-75
2022/02/11 06:17:43;;;;;;;;;7.00;6.75;;;;;20.35;42.38;102190.63;5057718;28;48467;-81
2022/02/11 06:20:09;;;;;;;;;10.00;8.00;;;;;20.42;42.66;102190.56;5057934;28;45358;-75
2022/02/11 06:22:35;;;;;;;;;10.75;9.00;;;;;20.46;42.29;102187.00;5037699;28;45463;-77
2022/02/11 06:25:00;;;;;;;;;9.75;7.00;;;;;20.50;42.25;102188.75;5070702;28;45411;-76
2022/02/11 06:27:26;;;;;;;;;8.75;6.75;;;;;20.53;41.99;102193.16;5060821;28;51376;-76
2022/02/11 06:29:51;;;;;;;;;11.75;8.75;;;;;20.55;41.91;102200.19;5061367;28;45452;-74
2022/02/11 06:32:17;;;;;;;;;8.75;8.75;;;;;20.58;42.11;102209.88;5027227;28;61039;-76
2022/02/11 06:34:42;;;;;;;;;9.75;7.25;;;;;20.60;41.85;102216.09;5043999;28;48042;-75
2022/02/11 06:37:07;;;;;;;;;9.75;8.00;;;;;20.63;41.58;102215.16;5060784;28;55405;-77
2022/02/11 06:39:33;;;;;;;;;9.00;7.50;;;;;20.64;41.55;102211.63;5026975;28;66066;-77
2022/02/11 06:41:58;;;;;;;;;11.25;9.75;;;;;20.66;41.75;102213.34;5044356;28;45588;-77
2022/02/11 06:44:24;;;;;;;;;8.00;7.50;;;;;20.68;41.83;102223.97;5061759;28;59978;-76
2022/02/11 06:46:49;;;;;;;;;9.00;7.50;;;;;20.68;42.26;102224.84;5044359;28;45262;-76
2022/02/11 06:49:15;;;;;;;;;8.00;8.00;;;;;20.69;42.45;102225.75;5043979;28;45288;-75
2022/02/11 06:51:40;;;;;;;;;5.75;5.00;;;;;20.71;42.73;102231.91;5061156;28;45243;-79
2022/02/11 06:54:06;;;;;;;;;11.25;8.00;;;;;20.71;42.98;102227.47;5027457;28;46929;-78
2022/02/11 06:56:31;;;;;;;;;12.00;8.50;;;;;20.73;43.21;102241.59;5027276;28;46019;-78
2022/02/11 06:58:56;;;;;;;;;9.50;7.25;;;;;20.75;43.32;102236.28;5044186;28;45432;-78
2022/02/11 07:01:22;;;;;;;;;13.50;8.75;;;;;20.76;43.16;102244.25;5060834;28;45508;-77
2022/02/11 07:03:48;;;;;;;;;11.50;9.50;;;;;20.78;42.74;102246.88;5043843;28;46112;-74
2022/02/11 07:06:13;;;;;;;;;10.25;5.00;;;;;20.78;43.29;102250.41;5060930;28;45846;-75
2022/02/11 07:08:38;;;;;;;;;11.75;9.00;;;;;20.80;43.21;102261.00;5061364;28;45477;-77
2022/02/11 07:11:04;;;;;;;;;6.75;6.50;;;;;20.81;42.84;102273.38;5042735;28;45330;-76
2022/02/11 07:13:29;;;;;;;;;9.00;8.00;;;;;20.78;41.85;102278.72;5052514;28;69612;-75
2022/02/11 07:15:55;;;;;;;;;10.75;7.75;;;;;20.75;41.84;102282.25;5058126;28;45437;-76
2022/02/11 07:18:20;;;;;;;;;12.00;10.00;;;;;20.77;41.93;102292.88;5058837;28;55902;-75
2022/02/11 07:20:45;;;;;;;;;9.50;9.00;;;;;20.77;41.71;102303.50;5059632;28;67785;-75
2022/02/11 07:23:12;;;;;;;;;8.50;8.00;;;;;20.78;41.88;102305.25;5059121;28;53573;-75
2022/02/11 07:25:39;;;;;;;;;10.25;8.50;;;;;20.80;41.84;102308.78;5059448;28;45242;-75
2022/02/11 07:28:04;;;;;;;;;8.50;7.25;;;;;20.80;41.95;102304.34;5059205;28;45196;-75
2022/02/11 07:30:30;;;;;;;;;13.50;8.25;;;;;20.82;41.58;102315.81;5060882;28;45219;-75
2022/02/11 07:32:55;;;;;;;;;8.25;6.50;;;;;20.82;41.93;102323.78;5041022;28;45295;-75
2022/02/11 07:35:21;;;;;;;;;12.00;8.75;;;;;20.82;41.91;102321.13;5059233;28;45452;-74
2022/02/11 07:37:46;;;;;;;;;8.25;7.50;;;;;20.84;41.87;102334.38;5042371;28;45352;-74
2022/02/11 07:40:14;;;;;;;;;10.25;9.00;;;;;20.84;41.50;102348.53;5042276;28;45259;-75
2022/02/11 07:42:41;;;;;;;;;11.50;7.50;;;;;20.86;41.62;102348.53;5059411;28;46288;-74
2022/02/11 07:45:08;;;;;;;;;11.25;8.75;;;;;20.86;41.39;102352.06;5059169;28;45520;-75
2022/02/11 07:47:33;;;;;;;;;9.00;9.00;;;;;20.88;41.70;102346.75;5042412;28;45429;-76
2022/02/11 07:49:59;;;;;;;;;7.75;7.25;;;;;20.86;41.39;102341.47;5058281;28;59100;-75
2022/02/11 07:52:25;;;;;;;;;9.75;8.25;;;;;20.86;41.22;102349.41;5059213;28;45399;-76
2022/02/11 07:54:50;;;;;;;;;5.50;5.50;;;;;20.87;41.06;102356.47;5042332;28;45348;-76
2022/02/11 07:57:16;;;;;;;;;8.75;6.25;;;;;20.88;41.24;102360.88;5059126;28;45288;-76
2022/02/11 07:59:41;;;;;;;;;8.00;7.00;;;;;20.89;41.38;102367.06;5059254;28;45342;-75
2022/02/11 08:02:07;;;;;;;;;7.25;7.25;;;;;20.89;41.31;102367.97;5041331;28;61904;-75
2022/02/11 08:04:32;;;;;;;;;6.75;6.00;;;;;20.89;41.17;102372.38;5038791;28;45433;-76
2022/02/11 08:06:58;;;;;;;;;10.00;7.00;;;;;20.89;41.24;102367.06;5072134;28;62352;-76
2022/02/11 08:09:23;;;;;;;;;7.50;5.50;;;;;20.90;41.22;102371.50;5038716;28;45516;-76
2022/02/11 08:11:49;;;;;;;;;7.50;6.00;;;;;20.92;41.11;102376.78;5062380;28;62451;-75
2022/02/11 08:14:14;;;;;;;;;9.25;8.00;;;;;20.92;41.17;102380.31;5059459;28;45428;-75
2022/02/11 08:16:40;;;;;;;;;7.75;6.25;;;;;20.92;41.44;102390.94;5056994;28;45548;-75
2022/02/11 08:19:06;;;;;;;;;31.25;24.25;;;;;20.93;42.32;102395.34;5057225;28;45690;-76
2022/02/11 08:21:33;;;;;;;;;7.25;7.25;;;;;20.93;41.79;102394.47;5043123;28;46062;-74
2022/02/11 08:23:59;;;;;;;;;8.50;7.50;;;;;20.94;41.27;102407.75;5052813;28;45220;-74
2022/02/11 08:26:25;;;;;;;;;7.50;6.25;;;;;20.96;41.72;102408.63;5058442;28;45623;-76
2022/02/11 08:28:51;;;;;;;;;11.25;8.25;;;;;20.97;41.22;102405.06;5042202;28;45393;-76
2022/02/11 08:31:16;;;;;;;;;10.75;7.00;;;;;20.98;41.40;102409.47;5039611;28;63631;-76
2022/02/11 08:33:41;;;;;;;;;8.00;7.25;;;;;21.00;41.39;102409.47;5041881;28;45437;-76
2022/02/11 08:36:07;;;;;;;;;6.75;6.75;;;;;21.01;41.03;102420.06;5041715;28;45273;-76
2022/02/11 08:38:32;;;;;;;;;7.50;7.00;;;;;21.02;41.10;102419.16;5060222;28;45584;-76
2022/02/11 08:40:59;;;;;;;;;7.25;7.25;;;;;21.04;40.90;102416.53;5041644;28;45878;-75
2022/02/11 08:43:25;;;;;;;;;6.75;6.00;;;;;21.06;40.60;102422.69;5050466;28;45298;-75
2022/02/11 08:45:50;;;;;;;;;7.00;6.50;;;;;21.07;40.69;102425.34;5058860;28;45910;-76
2022/02/11 08:48:16;;;;;;;;;8.50;7.75;;;;;21.09;40.78;102431.50;5042392;28;45548;-76
2022/02/11 08:50:42;;;;;;;;;6.00;6.00;;;;;21.14;40.45;102431.50;5041689;28;47356;-76
2022/02/11 08:53:08;;;;;;;;;6.25;6.25;;;;;21.17;40.35;102436.75;5043105;28;45304;-75
2022/02/11 08:55:34;;;;;;;;;8.00;6.00;;;;;21.22;40.46;102436.75;5060241;28;45268;-76
2022/02/11 08:57:59;;;;;;;;;6.25;5.00;;;;;21.26;40.42;102438.47;5060218;28;45449;-75
2022/02/11 09:00:28;;;;;;;;;6.25;6.25;;;;;21.29;40.28;102433.19;5059853;28;45424;-76
2022/02/11 09:02:57;;;;;;;;;10.75;8.00;;;;;21.33;39.79;102448.19;5042369;28;45407;-75
2022/02/11 09:05:24;;;;;;;;;8.75;8.00;;;;;21.36;39.82;102451.69;5025380;28;45191;-75
2022/02/11 09:07:57;;;;;;;;;8.50;6.00;;;;;21.38;39.80;102447.25;5037535;28;45292;-75
2022/02/11 09:10:23;;;;;;;;;8.75;6.50;;;;;21.42;39.42;102449.00;5058222;28;46729;-75
2022/02/11 09:12:48;;;;;;;;;8.25;5.75;;;;;21.48;39.51;102457.81;5075673;28;45262;-76
2022/02/11 09:15:14;;;;;;;;;3.25;3.25;;;;;21.51;39.60;102452.47;5041928;28;45356;-75
2022/02/11 09:17:39;;;;;;;;;6.75;6.75;;;;;21.53;39.51;102461.28;5058439;28;45239;-75
2022/02/11 09:20:05;;;;;;;;;8.00;7.25;;;;;21.56;39.26;102466.59;5057598;28;46021;-75
2022/02/11 09:22:31;;;;;;;;;7.50;6.75;;;;;21.58;39.24;102476.31;5059973;28;45537;-75
2022/02/11 09:24:56;;;;;;;;;6.50;5.75;;;;;21.59;39.04;102483.38;5058684;28;45373;-75
2022/02/11 09:27:22;;;;;;;;;7.50;6.50;;;;;21.62;38.81;102487.78;5035242;28;45497;-76
2022/02/11 09:29:48;;;;;;;;;7.75;5.75;;;;;21.64;38.66;102500.19;5041239;28;47088;-75
2022/02/11 09:32:13;;;;;;;;;8.00;6.50;;;;;21.67;39.12;102496.59;5041144;28;45335;-76
2022/02/11 09:34:39;;;;;;;;;8.00;6.50;;;;;21.69;38.94;102494.81;5041486;28;45374;-75
2022/02/11 09:37:04;;;;;;;;;6.00;6.00;;;;;21.71;38.78;102495.66;5040835;28;55477;-76
2022/02/11 09:39:30;;;;;;;;;8.25;7.00;;;;;21.73;38.88;102494.78;5041311;28;47874;-76
2022/02/11 09:41:55;;;;;;;;;5.00;4.50;;;;;21.76;38.25;102493.88;5058016;28;50327;-75
2022/02/11 09:44:24;;;;;;;;;7.00;5.75;;;;;21.79;38.55;102499.13;5024770;28;47017;-75
2022/02/11 09:46:50;;;;;;;;;6.25;5.50;;;;;21.82;38.93;102499.13;5026104;28;45517;-75
2022/02/11 09:49:15;;;;;;;;;5.75;5.75;;;;;21.84;38.40;102507.97;5041367;28;46316;-75
2022/02/11 09:51:42;;;;;;;;;7.25;6.00;;;;;21.87;38.65;102518.56;5058103;28;50676;-75
2022/02/11 09:54:08;;;;;;;;;6.25;5.75;;;;;21.87;38.41;102510.56;5058492;28;45338;-75
2022/02/11 09:56:33;;;;;;;;;6.50;6.50;;;;;21.90;38.58;102510.56;5058106;28;45358;-75
2022/02/11 09:58:58;;;;;;;;;7.75;6.50;;;;;21.91;38.39;102507.00;5059307;28;45395;-75
2022/02/11 10:01:24;;;;;;;;;5.75;5.75;;;;;21.94;38.22;102511.41;5040170;28;62990;-75
2022/02/11 10:04:09;;;;;;;;;6.00;4.25;;;;;21.95;38.01;102508.72;5040319;28;61903;-76
2022/02/11 10:06:35;;;;;;;;;7.75;7.00;;;;;21.97;38.62;102514.91;5041488;28;45505;-75
2022/02/11 10:09:00;;;;;;;;;5.25;5.25;;;;;21.99;38.18;102517.56;5057815;28;45409;-75
2022/02/11 10:11:26;;;;;;;;;6.25;5.00;;;;;22.00;37.99;102514.03;5040981;28;45384;-76
2022/02/11 10:13:53;;;;;;;;;4.75;4.75;;;;;22.02;37.97;102517.53;5040943;28;45804;-76
2022/02/11 10:16:22;;;;;;;;;5.00;4.75;;;;;22.04;38.20;102520.19;5058069;28;45282;-76
2022/02/11 10:18:50;;;;;;;;;6.00;4.75;;;;;22.05;37.93;102520.16;5040612;28;45567;-76
2022/02/11 10:21:23;;;;;;;;;7.00;4.25;;;;;22.07;37.79;102520.16;5049742;28;45425;-75
2022/02/11 10:23:54;;;;;;;;;5.00;4.00;;;;;22.08;37.65;102529.94;5041984;28;45319;-75
2022/02/11 10:26:22;;;;;;;;;5.50;4.00;;;;;22.09;38.18;102529.03;5038080;28;45453;-76
2022/02/11 10:28:52;;;;;;;;;8.00;5.00;;;;;22.09;37.80;102531.69;5041269;28;46564;-76
2022/02/11 10:31:20;;;;;;;;;7.00;5.50;;;;;;;;5040845;28;45344;-75
2022/02/11 10:33:54;;;;;;;;;7.00;5.50;;;;;22.12;37.59;102535.19;5058929;28;45307;-75
2022/02/11 10:36:34;;;;;;;;;4.75;4.75;;;;;22.14;38.01;102540.50;5058974;28;45579;-75
2022/02/11 10:39:04;;;;;;;;;4.50;4.00;;;;;22.15;37.76;102542.25;5042640;28;45500;-75
2022/02/11 10:41:29;;;;;;;;;4.00;4.00;;;;;22.16;37.36;102538.72;5040608;28;45255;-77
2022/02/11 10:44:06;;;;;;;;;6.75;5.50;;;;;22.14;37.79;102538.72;5041011;28;45244;-76
2022/02/11 10:46:36;;;;;;;;;4.50;4.50;;;;;22.12;37.69;102544.94;5035773;28;45637;-75
2022/02/11 10:49:01;;;;;;;;;5.00;5.00;;;;;22.12;37.40;102543.16;5040500;28;45316;-76
2022/02/11 10:51:26;;;;;;;;;4.00;4.00;;;;;22.15;37.57;102548.47;5039288;28;64833;-75
2022/02/11 10:53:52;;;;;;;;;6.75;4.75;;;;;22.17;37.18;102552.00;5056844;28;54099;-76
2022/02/11 10:56:17;;;;;;;;;4.25;4.00;;;;;22.17;37.32;102554.66;5040516;28;45424;-75
2022/02/11 10:58:53;;;;;;;;;7.50;7.00;;;;;22.15;37.52;102553.78;5040463;28;47186;-75
2022/02/11 11:01:18;;;;;;;;;6.00;5.25;;;;;22.16;37.66;102566.19;5040724;28;45336;-76
2022/02/11 11:03:46;;;;;;;;;4.75;4.75;;;;;22.13;37.83;102560.00;5057030;28;50577;-76
2022/02/11 11:06:11;;;;;;;;;6.00;6.00;;;;;22.11;37.43;102556.47;5040759;28;45585;-76
2022/02/11 11:08:41;;;;;;;;;8.75;5.00;;;;;22.09;37.42;102550.31;5040476;28;47133;-76
2022/02/11 11:11:10;;;;;;;;;4.50;3.50;;;;;22.12;37.35;102556.47;5054190;28;45614;-76
2022/02/11 11:13:39;;;;;;;;;6.25;5.00;;;;;22.13;37.16;102546.72;5076199;28;45319;-76
2022/02/11 11:16:09;;;;;;;;;4.50;3.00;;;;;22.11;37.03;102546.72;5060439;28;45399;-76
2022/02/11 11:18:37;;;;;;;;;4.00;4.00;;;;;22.13;36.95;102554.69;5043595;28;47375;-76
2022/02/11 11:21:04;;;;;;;;;5.00;4.50;;;;;22.15;37.03;102552.88;5060009;28;45302;-76
2022/02/11 11:23:31;;;;;;;;;4.25;4.25;;;;;22.16;37.37;102555.56;5027365;28;45336;-75
2022/02/11 11:26:02;;;;;;;;;4.00;4.00;;;;;22.18;37.11;102555.53;5042638;28;45522;-75
2022/02/11 11:29:02;;;;;;;;;5.00;4.00;;;;;22.18;36.79;102547.56;5060143;28;46478;-75
2022/02/11 11:31:28;;;;;;;;;4.25;4.25;;;;;22.20;36.92;102543.97;5037278;28;45439;-75
2022/02/11 11:34:16;;;;;;;;;4.25;3.25;;;;;22.21;37.21;102548.38;5043349;28;45256;-75
2022/02/11 11:36:42;;;;;;;;;4.00;4.00;;;;;22.21;37.17;102550.16;5057796;28;45494;-75
2022/02/11 11:39:07;;;;;;;;;6.50;5.00;;;;;22.21;37.00;102553.72;5053704;28;45529;-75
2022/02/11 11:41:35;;;;;;;;;6.50;5.50;;;;;22.22;37.05;102554.59;5042107;28;60536;-75
2022/02/11 11:44:21;;;;;;;;;5.00;5.00;;;;;22.23;37.03;102553.69;5058881;28;45484;-75
2022/02/11 11:46:51;;;;;;;;;4.50;3.75;;;;;22.22;36.70;102552.81;5024656;28;45597;-75
2022/02/11 11:49:17;;;;;;;;;6.00;4.25;;;;;22.21;36.91;102558.16;5025331;28;48107;-74
2022/02/11 11:51:45;;;;;;;;;3.00;2.00;;;;;22.19;37.08;102557.28;5043272;28;45387;-75
2022/02/11 11:54:17;;;;;;;;;5.00;4.00;;;;;22.18;36.61;102558.19;5061470;28;45268;-75
2022/02/11 11:56:43;;;;;;;;;4.50;4.50;;;;;22.18;36.82;102560.84;5059997;28;45668;-75
2022/02/11 11:59:25;;;;;;;;;4.00;3.00;;;;;22.15;36.58;102553.78;5061299;28;45330;-75
2022/02/11 12:02:00;;;;;;;;;7.75;6.25;;;;;22.14;36.73;102545.81;5060365;28;45338;-75
2022/02/11 12:04:27;;;;;;;;;5.50;5.50;;;;;22.12;36.55;102548.50;5061160;28;45414;-75
2022/02/11 12:07:03;;;;;;;;;7.25;5.50;;;;;;;;5059612;28;45354;-75
2022/02/11 12:09:28;;;;;;;;;5.25;5.25;;;;;22.07;36.86;102545.00;5061056;28;46057;-75
2022/02/11 12:11:55;;;;;;;;;7.25;5.75;;;;;22.05;36.93;102540.53;5041371;28;45434;-75
2022/02/11 12:14:20;;;;;;;;;7.00;6.00;;;;;22.01;36.50;102535.28;5059887;28;45345;-75
2022/02/11 12:16:46;;;;;;;;;4.75;4.75;;;;;22.00;36.67;102535.28;5042948;28;45470;-75
2022/02/11 12:19:12;;;;;;;;;7.50;6.00;;;;;21.98;37.00;102540.63;5042635;28;45271;-75
2022/02/11 12:21:37;;;;;;;;;5.50;5.25;;;;;21.97;36.81;102537.97;5059556;28;45435;-75
2022/02/11 12:29:32;;;;;;;;;7.00;4.00;;;;;21.94;36.62;102540.66;5045509;28;45787;-76
2022/02/11 12:31:58;;;;;;;;;5.50;5.50;;;;;21.94;36.51;102541.53;5059669;28;45250;-75
2022/02/11 12:34:25;;;;;;;;;6.25;5.00;;;;;21.93;36.71;102539.78;5059451;28;45313;-75
2022/02/11 12:36:50;;;;;;;;;4.00;4.00;;;;;21.94;36.86;102532.69;5059742;28;45260;-77
2022/02/11 12:39:20;;;;;;;;;8.00;5.75;;;;;21.95;37.46;102527.34;5044756;28;67951;-74
2022/02/11 12:41:46;;;;;;;;;7.00;7.00;;;;;21.97;37.64;102527.31;5046777;28;45430;-76
2022/02/11 12:44:29;;;;;;;;;7.00;6.00;;;;;22.02;38.08;102521.06;5042802;28;45272;-75
2022/02/11 12:46:55;;;;;;;;;8.00;7.25;;;;;22.06;37.76;102513.94;5042720;28;45505;-75
2022/02/11 12:49:20;;;;;;;;;8.50;7.75;;;;;;;;5042059;28;46088;-74
2022/02/11 12:51:50;;;;;;;;;6.25;5.25;;;;;22.10;37.79;102512.19;5058949;28;45441;-75
2022/02/11 12:54:15;;;;;;;;;6.75;4.00;;;;;22.11;38.13;102514.81;5062612;28;45239;-75
2022/02/11 12:56:41;;;;;;;;;4.50;4.50;;;;;22.12;37.97;102519.22;5026673;28;45249;-78
2022/02/11 12:59:07;;;;;;;;;5.25;4.75;;;;;22.15;38.30;102518.31;5058825;28;47029;-73
2022/02/11 13:01:32;;;;;;;;;6.25;6.25;;;;;22.15;38.29;102516.56;5059107;28;45342;-73
2022/02/11 13:03:58;;;;;;;;;6.50;5.25;;;;;22.17;38.11;102509.44;5036166;28;45437;-75
2022/02/11 13:06:23;;;;;;;;;8.50;6.00;;;;;22.15;37.43;102519.22;5041498;28;45314;-75
2022/02/11 13:08:49;;;;;;;;;5.25;5.25;;;;;22.12;37.47;102511.25;5043236;28;63158;-75
2022/02/11 13:11:14;;;;;;;;;9.00;7.75;;;;;;;;5044492;28;45436;-74
2022/02/11 13:13:40;;;;;;;;;5.00;5.00;;;;;22.06;37.35;102515.72;5075435;28;45412;-75
2022/02/11 13:16:05;;;;;;;;;5.00;4.00;;;;;22.03;36.99;102511.31;5038389;28;45363;-75
2022/02/11 13:18:33;;;;;;;;;9.00;7.75;;;;;22.02;37.28;102514.88;5054341;28;45929;-75
2022/02/11 13:21:00;;;;;;;;;6.00;6.00;;;;;21.99;36.96;102518.47;5042204;28;45302;-75
2022/02/11 13:23:26;;;;;;;;;3.75;3.75;;;;;21.96;36.75;102515.81;5058934;28;45303;-75
2022/02/11 13:25:53;;;;;;;;;9.00;6.50;;;;;21.94;36.72;102514.94;5024551;28;65994;-75
2022/02/11 13:28:19;;;;;;;;;5.75;5.25;;;;;21.93;36.54;102513.19;5041461;28;46490;-75
2022/02/11 13:30:46;;;;;;;;;6.25;4.25;;;;;21.92;36.84;102511.44;5041791;28;45391;-78
2022/02/11 13:33:21;;;;;;;;;4.00;4.00;;;;;21.92;36.60;102507.91;5041802;28;45347;-74
2022/02/11 13:35:46;;;;;;;;;4.00;4.00;;;;;21.90;36.93;102509.69;5057818;28;45450;-75
2022/02/11 13:38:12;;;;;;;;;5.75;5.75;;;;;21.88;36.59;102509.69;5024719;28;48278;-75
2022/02/11 13:40:38;;;;;;;;;6.00;6.00;;;;;21.89;36.80;102500.84;5052083;28;45923;-75
2022/02/11 13:43:05;;;;;;;;;6.50;5.50;;;;;21.89;36.45;102503.50;5057878;28;45348;-74
2022/02/11 13:45:54;;;;;;;;;5.00;4.75;;;;;21.89;36.75;102505.25;5057871;28;45534;-74
2022/02/11 13:48:20;;;;;;;;;5.50;4.50;;;;;21.87;36.68;102502.59;5045038;28;45528;-74
2022/02/11 13:51:06;;;;;;;;;6.00;5.25;;;;;21.87;36.77;102499.94;5035287;28;45610;-74
2022/02/11 13:53:38;;;;;;;;;5.25;5.25;;;;;21.87;36.40;102494.63;5057498;28;45296;-74
2022/02/11 13:56:09;;;;;;;;;5.00;4.00;;;;;21.87;36.04;102501.72;5028466;28;45694;-74
2022/02/11 13:58:34;;;;;;;;;6.75;6.75;;;;;21.84;36.20;102496.44;5041394;28;46302;-75
2022/02/11 14:01:01;;;;;;;;;7.25;6.50;;;;;21.85;36.54;102496.44;5040372;28;58687;-74
2022/02/11 14:03:28;;;;;;;;;6.00;4.75;;;;;21.83;36.41;102498.22;5041531;28;45443;-74
2022/02/11 14:06:01;;;;;;;;;4.75;4.75;;;;;21.84;36.26;102489.34;5041257;28;45317;-74
2022/02/11 14:08:40;;;;;;;;;4.00;4.00;;;;;21.84;36.16;102484.03;5058123;28;45478;-74
2022/02/11 14:11:10;;;;;;;;;5.75;4.50;;;;;21.85;36.12;102490.25;5057890;28;45362;-74
2022/02/11 14:13:35;;;;;;;;;6.50;6.50;;;;;21.84;36.38;102483.16;5058080;28;45255;-74
2022/02/11 14:16:01;;;;;;;;;6.00;6.00;;;;;21.84;36.14;102478.72;5024440;28;45622;-74
2022/02/11 14:18:26;;;;;;;;;5.00;5.00;;;;;21.85;36.61;102480.47;5040901;28;45615;-74
2022/02/11 14:20:51;;;;;;;;;4.75;4.75;;;;;21.86;36.15;102478.69;5041053;28;48823;-74
2022/02/11 14:23:19;;;;;;;;;10.00;5.25;;;;;21.86;36.42;102484.03;5041127;28;45568;-74
2022/02/11 14:25:46;;;;;;;;;6.00;6.00;;;;;21.86;36.27;102476.94;5042154;28;45484;-74
2022/02/11 14:28:12;;;;;;;;;7.00;7.00;;;;;21.87;36.72;102484.00;5059284;28;47200;-74
2022/02/11 14:30:41;;;;;;;;;4.25;4.25;;;;;21.88;36.42;102482.22;5042199;28;45264;-74
2022/02/11 14:33:07;;;;;;;;;7.00;5.00;;;;;21.87;36.15;102472.50;5058692;28;45477;-74
2022/02/11 14:35:32;;;;;;;;;5.50;5.50;;;;;21.87;36.59;102484.00;5041933;28;45359;-74
2022/02/11 14:37:58;;;;;;;;;7.25;7.00;;;;;21.87;36.39;102484.00;5041046;28;45390;-74
2022/02/11 14:40:23;;;;;;;;;7.25;7.25;;;;;21.87;36.61;102478.69;5057765;28;45446;-74
2022/02/11 14:42:49;;;;;;;;;6.00;5.50;;;;;21.87;36.18;102484.00;5024203;28;45353;-74
2022/02/11 14:45:14;;;;;;;;;6.75;6.50;;;;;21.86;36.27;102482.25;5040448;28;57790;-74
2022/02/11 14:47:39;;;;;;;;;9.75;6.75;;;;;21.86;36.01;102492.00;5058044;28;45342;-74
2022/02/11 14:50:06;;;;;;;;;8.00;6.00;;;;;21.84;36.30;102483.16;5027421;28;45337;-74
2022/02/11 14:52:32;;;;;;;;;7.50;6.25;;;;;21.83;35.95;102484.94;5061098;28;45343;-74
2022/02/11 14:54:58;;;;;;;;;6.50;6.50;;;;;21.82;36.03;102484.97;5044151;28;45461;-74
2022/02/11 14:57:24;;;;;;;;;10.50;7.50;;;;;21.81;36.00;102478.75;5061653;28;45935;-74
2022/02/11 14:59:49;;;;;;;;;11.00;7.00;;;;;21.81;35.83;102486.75;5027030;28;45363;-74
2022/02/11 15:02:15;;;;;;;;;5.50;5.00;;;;;21.79;36.15;102485.84;5044144;28;45205;-74
2022/02/11 15:04:41;;;;;;;;;6.75;6.00;;;;;21.78;36.00;102488.53;5060631;28;45320;-75
2022/02/11 15:07:07;;;;;;;;;5.50;5.50;;;;;21.78;36.01;102488.53;5043762;28;45291;-74
2022/02/11 15:09:32;;;;;;;;;5.75;5.00;;;;;21.77;36.12;102482.34;5060779;28;45349;-74
2022/02/11 15:11:58;;;;;;;;;11.00;7.00;;;;;21.76;36.08;102474.38;5043604;28;45450;-75
2022/02/11 15:14:25;;;;;;;;;9.00;8.00;;;;;21.75;35.65;102470.84;5026753;28;45343;-74
2022/02/11 15:16:50;;;;;;;;;6.00;6.00;;;;;21.73;35.80;102477.97;5060309;28;45445;-74
2022/02/11 15:19:16;;;;;;;;;5.50;5.50;;;;;21.73;36.00;102476.19;5060245;28;45469;-74
2022/02/11 15:21:42;;;;;;;;;6.00;6.00;;;;;21.75;35.99;102475.28;5043730;28;45324;-74